Time;durP1;ratioP1;P1;durP2;ratioP2;P2;SDS_P1;SDS_P2;PMS_P1;PMS_P2;Temp;Humidity;BMP_temperature;BMP_pressure;BME280_temperature;BME280_humidity;BME280_pressure;Samples;Min_cycle;Max_cycle;Signal;HPM_P1;HPM_P2
2023/06/15 00:01:50;;;;;;;7.20;3.40;;;;;;;15.43;55.30;101190.75;108037;1259;72721;-71
2023/06/15 00:04:17;;;;;;;8.60;3.80;;;;;;;15.42;55.15;101188.98;108601;1264;59929;-71
2023/06/15 00:06:44;;;;;;;5.80;3.10;;;;;;;15.41;55.04;101192.17;108270;1257;60329;-70
2023/06/15 00:09:12;;;;;;;5.00;3.10;;;;;;;15.40;55.14;101194.09;108332;1261;74396;-71
2023/06/15 00:11:39;;;;;;;7.60;3.20;;;;;;;15.38;55.06;101198.80;108597;1261;71652;-70
2023/06/15 00:14:06;;;;;;;5.90;3.20;;;;;;;15.36;55.08;101201.13;108188;1258;72386;-71
2023/06/15 00:16:34;;;;;;;6.70;3.10;;;;;;;15.34;55.20;101196.60;108655;1257;61193;-71
2023/06/15 00:19:01;;;;;;;6.80;3.00;;;;;;;15.33;55.27;101201.23;107952;1264;59099;-70
2023/06/15 00:21:33;;;;;;;6.00;3.20;;;;;;;15.31;55.29;101204.52;108284;1258;73470;-70
2023/06/15 00:24:00;;;;;;;6.50;2.90;;;;;;;15.28;55.42;101202.48;108281;1257;71587;-70
2023/06/15 00:26:27;;;;;;;8.80;3.50;;;;;;;15.27;55.72;101204.41;108435;1260;70204;-71
2023/06/15 00:28:54;;;;;;;7.70;3.10;;;;;;;15.25;55.87;101203.98;108672;1257;61495;-71
2023/06/15 00:31:22;;;;;;;7.60;3.00;;;;;;;15.24;55.69;101204.83;108189;1257;59488;-71
2023/06/15 00:33:49;;;;;;;7.30;2.90;;;;;;;15.23;55.90;101202.48;108656;1260;74056;-71
2023/06/15 00:36:17;;;;;;;6.30;2.90;;;;;;;15.23;55.93;101203.05;108322;1260;69681;-70
2023/06/15 00:38:45;;;;;;;6.70;3.20;;;;;;;15.23;56.08;101202.48;108138;1259;71479;-70
2023/06/15 00:41:12;;;;;;;7.90;3.40;;;;;;;15.22;55.99;101204.36;108220;1257;60504;-72
2023/06/15 00:43:40;;;;;;;5.90;2.90;;;;;;;15.21;56.25;101205.17;108135;1259;60907;-70
2023/06/15 00:46:07;;;;;;;6.30;2.90;;;;;;;15.19;56.34;101203.52;108429;1261;73469;-71
2023/06/15 00:48:34;;;;;;;6.40;3.60;;;;;;;15.15;56.78;101202.04;108473;1257;70312;-72
2023/06/15 00:51:01;;;;;;;5.20;2.90;;;;;;;15.10;57.08;101202.13;108449;1260;71499;-73
2023/06/15 00:53:28;;;;;;;6.00;3.10;;;;;;;15.04;57.38;101203.74;108475;1262;59458;-71
2023/06/15 00:55:55;;;;;;;6.30;3.40;;;;;;;14.99;57.35;101204.45;108505;1258;59874;-70
2023/06/15 00:58:24;;;;;;;6.10;3.00;;;;;;;14.92;57.41;101201.18;108138;1260;74857;-71
2023/06/15 01:00:54;;;;;;;7.90;3.10;;;;;;;14.85;57.44;101201.02;108422;1260;71160;-70
2023/06/15 01:03:21;;;;;;;5.90;3.10;;;;;;;14.79;57.63;101204.54;108661;1259;71750;-70
2023/06/15 01:05:52;;;;;;;6.40;3.10;;;;;;;14.73;57.89;101200.49;108446;1260;59157;-71
2023/06/15 01:08:23;;;;;;;6.60;3.40;;;;;;;14.67;57.91;101201.05;108111;1257;61258;-70
2023/06/15 01:10:52;;;;;;;6.30;3.40;;;;;;;14.61;58.59;101199.59;108580;1259;74063;-71
2023/06/15 01:13:20;;;;;;;5.70;3.00;;;;;;;14.55;59.02;101202.80;108298;1258;71220;-72
2023/06/15 01:15:52;;;;;;;5.80;3.20;;;;;;;14.50;59.29;101197.42;108180;1257;71501;-70
2023/06/15 01:18:20;;;;;;;5.70;3.30;;;;;;;14.43;59.72;101198.30;108233;1259;62408;-70
2023/06/15 01:20:48;;;;;;;5.20;3.50;;;;;;;14.37;59.91;101197.82;108001;1259;61986;-71
2023/06/15 01:23:50;;;;;;;4.90;3.40;;;;;;;14.30;60.14;101201.39;108624;1259;73570;-72
2023/06/15 01:26:20;;;;;;;6.00;3.30;;;;;;;14.23;60.36;101197.65;108251;1259;69683;-71
2023/06/15 01:28:49;;;;;;;6.90;3.50;;;;;;;14.16;60.52;101198.85;108649;1260;71563;-71
2023/06/15 01:31:17;;;;;;;6.80;3.30;;;;;;;14.09;61.05;101193.09;108177;1259;61358;-71
2023/06/15 01:33:49;;;;;;;5.10;3.30;;;;;;;14.01;60.97;101191.02;108472;1259;58618;-71
2023/06/15 01:36:17;;;;;;;5.50;3.20;;;;;;;13.96;61.38;101190.98;108352;1260;76526;-71
2023/06/15 01:38:49;;;;;;;5.40;3.30;;;;;;;13.91;61.72;101189.17;108475;1258;70794;-70
2023/06/15 01:41:18;;;;;;;6.40;3.30;;;;;;;13.85;61.99;101187.80;108251;1260;72501;-71
2023/06/15 01:43:46;;;;;;;5.00;3.40;;;;;;;13.81;62.20;101185.79;108500;1260;61889;-70
2023/06/15 01:46:13;;;;;;;5.00;3.40;;;;;;;13.78;62.44;101186.23;108503;1257;60357;-71
2023/06/15 01:48:41;;;;;;;8.00;3.40;;;;;;;13.74;62.47;101189.70;108380;1259;73644;-71
2023/06/15 01:51:08;;;;;;;6.60;3.40;;;;;;;13.69;62.53;101190.98;108450;1259;72221;-70
2023/06/15 01:53:36;;;;;;;4.80;3.40;;;;;;;13.64;62.81;101191.70;108699;1258;72753;-71
2023/06/15 01:56:03;;;;;;;5.50;3.50;;;;;;;13.61;63.09;101192.51;108177;1259;61115;-70
2023/06/15 01:58:30;;;;;;;7.40;3.50;;;;;;;13.58;63.34;101194.31;108171;1259;60173;-70
2023/06/15 02:00:56;;;;;;;7.10;3.50;;;;;;;13.55;63.45;101189.68;108492;1259;73469;-70
2023/06/15 02:03:24;;;;;;;6.00;3.40;;;;;;;13.54;63.46;101192.16;108278;1259;70577;-70
2023/06/15 02:05:51;;;;;;;7.00;3.60;;;;;;;13.53;63.65;101191.73;108561;1259;71522;-71
2023/06/15 02:08:17;;;;;;;6.20;3.60;;;;;;;13.52;63.49;101190.61;108273;1259;60796;-72
2023/06/15 02:10:45;;;;;;;7.50;3.60;;;;;;;13.51;63.48;101186.04;107893;1259;61353;-70
2023/06/15 02:13:12;;;;;;;8.00;3.70;;;;;;;13.50;63.64;101188.54;108371;1260;75393;-71
2023/06/15 02:15:39;;;;;;;6.80;3.80;;;;;;;13.49;63.65;101188.39;108174;1260;71760;-70
2023/06/15 02:18:11;;;;;;;7.60;3.70;;;;;;;13.46;63.64;101187.61;107801;1261;70717;-71
2023/06/15 02:20:40;;;;;;;7.90;3.50;;;;;;;13.44;63.70;101187.18;108254;1258;62057;-71
2023/06/15 02:23:07;;;;;;;6.30;3.70;;;;;;;13.41;63.96;101188.07;108620;1262;60720;-71
2023/06/15 02:25:35;;;;;;;8.00;3.50;;;;;;;13.39;63.81;101190.70;108404;1259;73146;-72
2023/06/15 02:28:02;;;;;;;6.70;3.30;;;;;;;13.34;64.04;101185.36;108380;1260;70197;-71
2023/06/15 02:30:29;;;;;;;6.90;3.50;;;;;;;13.33;64.26;101185.70;108583;1260;71456;-71
2023/06/15 02:33:00;;;;;;;5.50;3.60;;;;;;;13.30;64.21;101185.64;108068;1259;61355;-70
2023/06/15 02:35:27;;;;;;;7.30;3.60;;;;;;;13.29;64.57;101191.14;108311;1258;59732;-70
2023/06/15 02:37:55;;;;;;;6.70;3.70;;;;;;;13.26;64.57;101188.25;108227;1259;72545;-70
2023/06/15 02:40:22;;;;;;;7.40;3.60;;;;;;;13.23;64.74;101188.55;108301;1259;70971;-70
2023/06/15 02:42:50;;;;;;;8.40;3.80;;;;;;;13.20;65.09;101183.20;108204;1260;72433;-72
2023/06/15 02:45:17;;;;;;;8.00;3.70;;;;;;;13.18;65.29;101190.45;108391;1259;61101;-70
2023/06/15 02:47:45;;;;;;;7.80;3.60;;;;;;;13.15;65.34;101192.87;108443;1259;60328;-70
2023/06/15 02:50:13;;;;;;;6.20;3.70;;;;;;;13.12;65.38;101191.30;108579;1260;74016;-70
2023/06/15 02:52:40;;;;;;;6.30;3.60;;;;;;;13.10;65.76;101194.24;107969;1260;71219;-70
2023/06/15 02:55:08;;;;;;;5.90;3.70;;;;;;;13.05;65.94;101196.88;108187;1259;71443;-71
2023/06/15 02:57:35;;;;;;;7.60;3.80;;;;;;;12.97;66.16;101197.29;108207;1259;61272;-70
2023/06/15 03:00:04;;;;;;;6.40;3.80;;;;;;;12.91;66.58;101204.55;108449;1259;60500;-71
2023/06/15 03:02:32;;;;;;;6.70;3.50;;;;;;;12.84;66.61;101201.48;108411;1260;74713;-70
2023/06/15 03:04:59;;;;;;;6.10;3.70;;;;;;;12.79;66.87;101199.95;107894;1260;69935;-70
2023/06/15 03:07:26;;;;;;;5.10;3.50;;;;;;;12.76;66.78;101198.90;108383;1259;72727;-70
2023/06/15 03:09:53;;;;;;;6.00;3.70;;;;;;;12.73;66.97;101200.98;108697;1259;60800;-70
2023/06/15 03:12:20;;;;;;;5.40;3.80;;;;;;;12.70;67.19;101201.13;107876;1259;61169;-70
2023/06/15 03:14:53;;;;;;;8.00;4.10;;;;;;;12.68;67.59;101203.91;107904;1260;73504;-69
2023/06/15 03:17:21;;;;;;;5.50;3.60;;;;;;;12.65;67.75;101210.38;108295;1259;70205;-70
2023/06/15 03:19:48;;;;;;;5.70;3.80;;;;;;;12.63;68.11;101207.36;108567;1258;71152;-71
2023/06/15 03:22:16;;;;;;;8.10;4.20;;;;;;;12.62;68.28;101212.82;108577;1258;61135;-70
2023/06/15 03:24:44;;;;;;;8.00;3.70;;;;;;;12.61;68.44;101213.67;108565;1259;59413;-70
2023/06/15 03:27:11;;;;;;;6.80;3.70;;;;;;;12.61;68.55;101211.92;108495;1260;74648;-71
2023/06/15 03:29:39;;;;;;;6.00;3.80;;;;;;;12.62;68.46;101211.93;108798;1259;69958;-71
2023/06/15 03:32:07;;;;;;;5.70;3.70;;;;;;;12.64;68.38;101212.59;108366;1258;71432;-71
2023/06/15 03:34:37;;;;;;;6.90;4.00;;;;;;;12.68;68.40;101215.83;108193;1259;61176;-70
2023/06/15 03:37:05;;;;;;;7.00;3.70;;;;;;;12.70;68.47;101216.23;108248;1260;60841;-71
2023/06/15 03:39:32;;;;;;;6.80;4.10;;;;;;;12.73;68.17;101214.99;108602;1258;74531;-70
2023/06/15 03:41:59;;;;;;;7.40;4.00;;;;;;;12.77;68.42;101217.48;108405;1258;71191;-70
2023/06/15 03:44:26;;;;;;;5.50;3.50;;;;;;;12.83;68.35;101224.67;108048;1257;71558;-70
2023/06/15 03:46:53;;;;;;;7.70;3.70;;;;;;;12.88;68.42;101223.17;108438;1259;61498;-70
2023/06/15 03:49:19;;;;;;;4.80;3.70;;;;;;;12.94;68.32;101227.86;108311;1258;59400;-70
2023/06/15 03:51:46;;;;;;;6.30;3.70;;;;;;;13.00;68.13;101228.84;108332;1258;74715;-69
2023/06/15 03:54:14;;;;;;;8.60;4.40;;;;;;;13.09;68.08;101236.20;107956;1259;71567;-69
2023/06/15 03:56:41;;;;;;;5.20;3.60;;;;;;;13.18;67.91;101232.15;108030;1259;72710;-71
2023/06/15 03:59:08;;;;;;;6.80;4.10;;;;;;;13.27;67.62;101232.71;108342;1265;61675;-70
2023/06/15 04:01:35;;;;;;;9.70;3.90;;;;;;;13.35;67.63;101234.77;108775;1258;60362;-70
2023/06/15 04:04:02;;;;;;;6.70;3.80;;;;;;;13.44;67.41;101240.02;108442;1258;73500;-71
2023/06/15 04:06:32;;;;;;;8.50;4.00;;;;;;;13.52;67.26;101235.35;108291;1259;69726;-70
2023/06/15 04:08:59;;;;;;;6.00;3.80;;;;;;;13.59;67.26;101235.20;108509;1258;71647;-71
2023/06/15 04:11:26;;;;;;;7.50;4.00;;;;;;;13.67;67.10;101231.64;108431;1258;61898;-71
2023/06/15 04:13:53;;;;;;;8.80;3.90;;;;;;;13.77;67.00;101230.80;108015;1260;59391;-71
2023/06/15 04:16:20;;;;;;;10.30;3.90;;;;;;;13.84;67.06;101236.58;108273;1260;72981;-70
2023/06/15 04:18:47;;;;;;;9.00;4.10;;;;;;;13.94;66.97;101239.39;108366;1259;70342;-69
2023/06/15 04:21:14;;;;;;;8.70;4.20;;;;;;;14.04;66.90;101241.93;108274;1259;73089;-69
2023/06/15 04:23:43;;;;;;;5.60;3.80;;;;;;;14.14;66.76;101242.55;108292;1259;61320;-70
2023/06/15 04:26:09;;;;;;;7.20;4.10;;;;;;;14.23;66.47;101241.59;108243;1259;60392;-70
2023/06/15 04:28:36;;;;;;;9.70;4.50;;;;;;;14.33;66.51;101243.84;108360;1258;73154;-70
2023/06/15 04:31:09;;;;;;;5.80;3.90;;;;;;;14.44;66.42;101248.90;108099;1259;69967;-69
2023/06/15 04:33:42;;;;;;;6.00;3.90;;;;;;;14.54;66.06;101249.80;108525;1259;73838;-72
2023/06/15 04:36:12;;;;;;;9.20;4.30;;;;;;;14.62;65.94;101247.38;108480;1259;61001;-71
2023/06/15 04:38:46;;;;;;;6.70;3.80;;;;;;;14.73;65.71;101251.11;108441;1259;59353;-72
2023/06/15 04:41:14;;;;;;;7.90;3.70;;;;;;;14.84;65.66;101249.21;107720;1261;73432;-73
2023/06/15 04:43:41;;;;;;;7.70;3.70;;;;;;;14.94;65.02;101252.70;108458;1259;70188;-73
2023/06/15 04:46:08;;;;;;;9.20;3.60;;;;;;;15.02;64.16;101253.46;108401;1259;71361;-73
2023/06/15 04:48:35;;;;;;;7.80;3.60;;;;;;;15.10;63.37;101255.08;108304;1259;59560;-73
2023/06/15 04:51:02;;;;;;;5.40;3.30;;;;;;;15.16;62.48;101257.71;108348;1257;60855;-73
2023/06/15 04:53:29;;;;;;;6.90;3.70;;;;;;;15.23;61.82;101256.80;108610;1258;75203;-74
2023/06/15 04:55:56;;;;;;;8.50;3.50;;;;;;;15.32;61.60;101257.07;108012;1260;71315;-72
2023/06/15 04:58:23;;;;;;;8.80;4.80;;;;;;;15.42;61.18;101255.27;107711;1259;71682;-72
2023/06/15 05:00:50;;;;;;;7.40;3.80;;;;;;;15.54;60.91;101258.48;107798;1258;62115;-73
2023/06/15 05:03:17;;;;;;;7.50;4.10;;;;;;;15.62;60.26;101259.58;108097;1258;59134;-75
2023/06/15 05:05:44;;;;;;;9.40;3.70;;;;;;;15.67;59.75;101258.55;108011;1258;74702;-73
2023/06/15 05:08:15;;;;;;;6.70;3.70;;;;;;;15.67;59.17;101256.25;107855;1261;70366;-73
2023/06/15 05:10:42;;;;;;;6.80;4.10;;;;;;;15.69;59.18;101255.88;107777;1259;72742;-74
2023/06/15 05:13:12;;;;;;;7.80;3.60;;;;;;;15.72;59.14;101257.11;108435;1259;60456;-74
2023/06/15 05:15:39;;;;;;;7.80;3.70;;;;;;;15.74;58.84;101256.95;108135;1259;59013;-73
2023/06/15 05:18:06;;;;;;;6.80;3.50;;;;;;;15.80;59.17;101256.54;108331;1258;74643;-75
2023/06/15 05:20:33;;;;;;;6.90;3.80;;;;;;;15.90;58.88;101257.83;108003;1259;71489;-73
2023/06/15 05:23:00;;;;;;;6.80;3.80;;;;;;;15.94;58.18;101251.27;107830;1257;73832;-74
2023/06/15 05:25:27;;;;;;;8.80;3.80;;;;;;;16.01;58.37;101256.11;108263;1257;59359;-73
2023/06/15 05:27:55;;;;;;;7.80;4.00;;;;;;;16.11;58.60;101258.93;108071;1258;59545;-73
2023/06/15 05:30:26;;;;;;;6.40;3.70;;;;;;;16.24;58.61;101256.83;108460;1259;74013;-73
2023/06/15 05:32:53;;;;;;;7.30;3.60;;;;;;;16.38;58.11;101260.19;108222;1260;70647;-73
2023/06/15 05:35:20;;;;;;;6.80;3.10;;;;;;;16.49;57.18;101257.30;107778;1260;71938;-73
2023/06/15 05:37:47;;;;;;;6.20;3.50;;;;;;;16.60;57.31;101259.29;108122;1262;59201;-73
2023/06/15 05:40:14;;;;;;;4.90;3.40;;;;;;;16.72;57.20;101258.49;108029;1258;59954;-72
2023/06/15 05:42:41;;;;;;;5.20;3.20;;;;;;;16.83;56.49;101260.06;108297;1259;73145;-74
2023/06/15 05:45:09;;;;;;;5.70;3.80;;;;;;;16.89;55.92;101258.36;107960;1258;70246;-74
2023/06/15 05:47:35;;;;;;;4.80;3.20;;;;;;;16.97;56.06;101259.91;108167;1257;70350;-75
2023/06/15 05:50:03;;;;;;;6.50;3.40;;;;;;;17.08;56.34;101258.17;108277;1257;61393;-74
2023/06/15 05:52:30;;;;;;;6.40;3.50;;;;;;;17.20;56.16;101264.80;107872;1259;60371;-74
2023/06/15 05:54:57;;;;;;;5.10;3.20;;;;;;;17.30;54.96;101263.29;107833;1259;73954;-74
2023/06/15 05:57:30;;;;;;;8.40;3.60;;;;;;;17.36;54.88;101263.13;108138;1257;69824;-74
2023/06/15 05:59:57;;;;;;;5.40;3.70;;;;;;;17.44;54.56;101264.31;107800;1260;73892;-75
2023/06/15 06:02:24;;;;;;;5.10;3.20;;;;;;;17.52;54.31;101261.80;108629;1258;60722;-74
2023/06/15 06:04:51;;;;;;;6.30;3.30;;;;;;;17.63;54.47;101260.67;107562;1258;61245;-73
2023/06/15 06:07:18;;;;;;;6.50;3.00;;;;;;;17.76;54.12;101262.69;108490;1258;74785;-74
2023/06/15 06:09:45;;;;;;;8.00;3.20;;;;;;;17.86;53.41;101259.69;108399;1259;69650;-74
2023/06/15 06:12:13;;;;;;;7.80;3.40;;;;;;;17.96;53.19;101258.39;107971;1259;72681;-74
2023/06/15 06:14:40;;;;;;;7.20;3.20;;;;;;;18.06;53.31;101263.10;108120;1258;61252;-75
2023/06/15 06:17:07;;;;;;;5.10;3.10;;;;;;;18.15;53.44;101260.61;107728;1259;61368;-74
2023/06/15 06:19:34;;;;;;;8.30;3.10;;;;;;;18.26;52.98;101260.95;108392;1259;74826;-76
2023/06/15 06:22:01;;;;;;;7.60;3.60;;;;;;;18.31;52.46;101260.55;108009;1259;71488;-74
2023/06/15 06:24:28;;;;;;;5.80;3.10;;;;;;;18.36;52.31;101260.38;107576;1259;72782;-74
2023/06/15 06:26:55;;;;;;;5.30;3.00;;;;;;;18.43;51.75;101256.25;108145;1258;61697;-74
2023/06/15 06:29:22;;;;;;;7.90;3.00;;;;;;;18.52;52.19;101256.91;107783;1259;59064;-74
2023/06/15 06:31:49;;;;;;;5.00;3.10;;;;;;;18.68;51.85;101258.12;108042;1260;74760;-73
2023/06/15 06:34:17;;;;;;;5.70;2.90;;;;;;;18.87;51.19;101260.52;107937;1258;70281;-73
2023/06/15 06:36:44;;;;;;;6.50;2.80;;;;;;;19.06;51.02;101260.68;107959;1258;71585;-72
2023/06/15 06:39:11;;;;;;;5.20;3.00;;;;;;;19.23;50.23;101258.99;107779;1262;61252;-71
2023/06/15 06:41:38;;;;;;;5.90;2.90;;;;;;;19.36;48.95;101257.07;107696;1260;59311;-74
2023/06/15 06:44:04;;;;;;;4.80;3.00;;;;;;;19.46;48.60;101256.25;108171;1259;74101;-73
2023/06/15 06:46:31;;;;;;;5.60;2.50;;;;;;;19.59;48.33;101259.77;108174;1263;71774;-73
2023/06/15 06:48:58;;;;;;;5.60;2.90;;;;;;;19.69;47.78;101259.78;108116;1259;72831;-74
2023/06/15 06:51:25;;;;;;;12.60;3.40;;;;;;;19.80;47.78;101261.67;108159;1259;61328;-74
2023/06/15 06:53:53;;;;;;;7.20;2.70;;;;;;;19.91;47.71;101260.31;108260;1259;60475;-75
2023/06/15 06:56:20;;;;;;;6.80;2.70;;;;;;;20.07;47.54;101256.84;107885;1259;73351;-72
2023/06/15 06:58:46;;;;;;;5.10;2.50;;;;;;;20.18;46.82;101255.39;108199;1259;71691;-74
2023/06/15 07:01:13;;;;;;;6.40;2.70;;;;;;;20.29;46.28;101253.02;108601;1258;72619;-75
2023/06/15 07:03:40;;;;;;;6.50;2.90;;;;;;;20.41;46.19;101259.17;107993;1258;61180;-73
2023/06/15 07:06:07;;;;;;;6.60;2.90;;;;;;;20.51;45.69;101259.13;107845;1260;61489;-72
2023/06/15 07:08:34;;;;;;;5.50;2.70;;;;;;;20.56;45.63;101257.30;108315;1258;74694;-73
2023/06/15 07:11:01;;;;;;;6.80;2.60;;;;;;;20.67;45.35;101250.58;108043;1259;70599;-71
2023/06/15 07:13:28;;;;;;;7.60;2.60;;;;;;;20.81;45.32;101248.69;107990;1258;72456;-74
2023/06/15 07:15:57;;;;;;;6.20;2.80;;;;;;;20.89;43.95;101251.05;107940;1258;59621;-72
2023/06/15 07:18:25;;;;;;;7.90;3.20;;;;;;;20.91;43.47;101249.77;108176;1258;59646;-73
2023/06/15 07:20:54;;;;;;;4.60;2.40;;;;;;;20.91;44.00;101248.86;108565;1258;74760;-73
2023/06/15 07:23:22;;;;;;;5.80;2.30;;;;;;;20.96;43.73;101246.21;108667;1259;71249;-74
2023/06/15 07:25:57;;;;;;;3.90;2.50;;;;;;;21.05;43.38;101246.98;108427;1259;72482;-74
2023/06/15 07:28:25;;;;;;;6.60;2.60;;;;;;;21.17;43.34;101238.12;108694;1258;59411;-73
2023/06/15 07:30:52;;;;;;;7.00;2.50;;;;;;;21.32;42.66;101240.31;108694;1258;61044;-74
2023/06/15 07:33:19;;;;;;;3.90;2.10;;;;;;;21.43;42.60;101241.50;107903;1259;74733;-74
2023/06/15 07:35:46;;;;;;;5.00;2.30;;;;;;;21.48;42.16;101241.63;108156;1262;70060;-75
2023/06/15 07:38:14;;;;;;;6.40;2.60;;;;;;;21.55;42.23;101245.95;108380;1259;73169;-73
2023/06/15 07:40:41;;;;;;;5.00;2.20;;;;;;;21.60;41.38;101242.14;108053;1258;59135;-73
2023/06/15 07:43:09;;;;;;;6.20;2.30;;;;;;;21.69;41.38;101240.11;107766;1258;60920;-73
2023/06/15 07:45:36;;;;;;;5.50;2.40;;;;;;;21.81;41.41;101241.96;108015;1259;74679;-73
2023/06/15 07:48:04;;;;;;;4.00;2.40;;;;;;;21.91;41.40;101243.20;108437;1259;70961;-73
2023/06/15 07:50:31;;;;;;;7.20;2.70;;;;;;;21.97;41.05;101244.85;107863;1258;70483;-72
2023/06/15 07:52:58;;;;;;;5.40;2.50;;;;;;;22.05;41.38;101245.11;107705;1259;61788;-72
2023/06/15 07:55:25;;;;;;;5.70;2.30;;;;;;;22.17;40.89;101246.98;108149;1258;61368;-73
2023/06/15 07:57:52;;;;;;;6.10;2.40;;;;;;;22.24;40.18;101248.50;108574;1259;73545;-72
2023/06/15 08:00:19;;;;;;;4.30;2.10;;;;;;;22.32;40.66;101249.26;108098;1259;69858;-73
2023/06/15 08:02:48;;;;;;;5.80;2.30;;;;;;;22.45;40.22;101247.90;108147;1258;70168;-73
2023/06/15 08:05:15;;;;;;;6.90;2.20;;;;;;;22.58;39.35;101245.34;108133;1259;61303;-73
2023/06/15 08:07:42;;;;;;;5.10;2.20;;;;;;;22.67;38.76;101246.31;108128;1259;59701;-72
2023/06/15 08:10:10;;;;;;;6.10;2.70;;;;;;;22.75;39.09;101242.79;107595;1259;73461;-73
2023/06/15 08:12:36;;;;;;;5.60;2.20;;;;;;;22.84;38.50;101242.56;107952;1259;69679;-73
2023/06/15 08:15:04;;;;;;;6.90;2.10;;;;;;;22.86;37.98;101244.11;108337;1259;71669;-73
2023/06/15 08:17:33;;;;;;;6.10;2.40;;;;;;;22.92;38.46;101236.96;108128;1259;60485;-74
2023/06/15 08:20:01;;;;;;;6.10;2.70;;;;;;;23.01;37.76;101240.61;108321;1260;61162;-72
2023/06/15 08:22:27;;;;;;;4.40;2.40;;;;;;;23.11;37.85;101242.52;107980;1262;73801;-72
2023/06/15 08:24:54;;;;;;;4.30;2.50;;;;;;;23.23;37.71;101237.84;108249;1260;71562;-72
2023/06/15 08:27:21;;;;;;;6.00;2.10;;;;;;;23.33;37.52;101235.73;107601;1258;70288;-73
2023/06/15 08:29:49;;;;;;;4.60;2.30;;;;;;;23.35;36.83;101236.73;107876;1260;61271;-73
2023/06/15 08:32:16;;;;;;;6.30;2.20;;;;;;;23.40;36.89;101234.64;107746;1260;59914;-72
2023/06/15 08:34:43;;;;;;;4.20;2.20;;;;;;;23.50;36.64;101232.46;108033;1259;74723;-72
2023/06/15 08:37:12;;;;;;;5.90;2.70;;;;;;;23.62;37.15;101230.63;108037;1258;70660;-73
2023/06/15 08:39:39;;;;;;;6.40;2.20;;;;;;;23.75;36.37;101232.24;107951;1258;71642;-72
2023/06/15 08:42:07;;;;;;;6.50;2.70;;;;;;;23.87;36.30;101229.86;108391;1258;61803;-73
2023/06/15 08:44:34;;;;;;;4.90;2.20;;;;;;;24.00;35.69;101230.36;108602;1259;58956;-73
2023/06/15 08:47:03;;;;;;;5.40;2.10;;;;;;;24.10;34.76;101230.70;108168;1258;74794;-72
2023/06/15 08:49:31;;;;;;;5.50;2.00;;;;;;;24.17;34.02;101227.92;108364;1260;69937;-73
2023/06/15 08:51:58;;;;;;;6.40;2.20;;;;;;;24.24;34.29;101232.77;108336;1259;72743;-72
2023/06/15 08:54:32;;;;;;;7.10;2.30;;;;;;;24.36;34.09;101232.25;108566;1260;60103;-72
2023/06/15 08:57:00;;;;;;;6.30;2.30;;;;;;;24.47;34.05;101231.62;107981;1260;61244;-72
2023/06/15 08:59:30;;;;;;;9.00;2.80;;;;;;;24.63;33.92;101230.51;108223;1260;73549;-72
2023/06/15 09:01:59;;;;;;;7.70;2.20;;;;;;;24.75;33.49;101227.20;108437;1260;71140;-72
2023/06/15 09:04:27;;;;;;;5.40;2.10;;;;;;;24.83;32.39;101224.83;107890;1258;72434;-72
2023/06/15 09:06:57;;;;;;;5.50;3.20;;;;;;;24.82;31.91;101219.95;107754;1259;59491;-72
2023/06/15 09:09:23;;;;;;;4.20;2.30;;;;;;;24.87;32.12;101224.34;107786;1259;61165;-74
2023/06/15 09:11:50;;;;;;;4.90;2.20;;;;;;;24.98;32.34;101221.02;108343;1259;75233;-73
2023/06/15 09:14:17;;;;;;;6.10;2.30;;;;;;;25.11;32.28;101221.98;108297;1260;69932;-73
2023/06/15 09:16:44;;;;;;;4.80;2.20;;;;;;;25.20;31.79;101225.54;108188;1260;72372;-74
2023/06/15 09:19:11;;;;;;;5.30;1.90;;;;;;;25.29;30.80;101218.18;108223;1259;60422;-74
2023/06/15 09:21:51;;;;;;;5.70;2.30;;;;;;;25.34;30.27;101221.54;108028;1259;61846;-74
2023/06/15 09:24:24;;;;;;;7.20;1.90;;;;;;;25.34;29.96;101216.92;107749;1258;73537;-72
2023/06/15 09:26:51;;;;;;;4.40;2.00;;;;;;;25.33;29.44;101215.45;107920;1259;72407;-72
2023/06/15 09:29:18;;;;;;;4.10;1.70;;;;;;;25.32;29.35;101211.84;107772;1261;70205;-73
2023/06/15 09:31:45;;;;;;;4.60;2.40;;;;;;;25.37;29.57;101214.16;108377;1260;61326;-74
2023/06/15 09:34:12;;;;;;;4.40;1.90;;;;;;;25.48;29.74;101212.45;107788;1258;61253;-73
2023/06/15 09:36:40;;;;;;;4.70;1.70;;;;;;;25.65;29.05;101212.33;108483;1258;72431;-72
2023/06/15 09:39:09;;;;;;;4.50;2.00;;;;;;;25.81;29.45;101206.43;108165;1260;70467;-75
2023/06/15 09:41:50;;;;;;;5.50;2.10;;;;;;;25.92;28.81;101202.48;108400;1259;70139;-72
2023/06/15 09:44:19;;;;;;;4.60;1.90;;;;;;;26.07;29.28;101203.25;107827;1258;59540;-72
2023/06/15 09:46:49;;;;;;;4.10;1.90;;;;;;;26.20;28.60;101197.20;107636;1259;59197;-73
2023/06/15 09:49:20;;;;;;;4.90;1.90;;;;;;;26.32;27.93;101199.20;108082;1260;73540;-73
2023/06/15 09:51:52;;;;;;;6.30;1.90;;;;;;;26.25;27.00;101197.05;107767;1262;71987;-73
2023/06/15 09:54:23;;;;;;;5.10;2.20;;;;;;;26.22;27.91;101192.80;107964;1260;71529;-73
2023/06/15 09:56:51;;;;;;;3.70;2.00;;;;;;;26.34;27.89;101192.08;108035;1259;61251;-74
2023/06/15 09:59:19;;;;;;;4.30;1.80;;;;;;;26.41;26.97;101192.64;108143;1259;61277;-73
2023/06/15 10:01:48;;;;;;;6.90;2.10;;;;;;;26.43;26.76;101193.55;107851;1260;73781;-73
2023/06/15 10:04:24;;;;;;;6.60;2.10;;;;;;;26.43;27.08;101191.92;107678;1259;70066;-73
2023/06/15 10:06:57;;;;;;;3.80;2.00;;;;;;;26.54;27.49;101188.59;108213;1259;71492;-73
2023/06/15 10:09:31;;;;;;;3.60;1.90;;;;;;;26.72;27.65;101188.14;107997;1259;61257;-73
2023/06/15 10:12:11;;;;;;;3.60;1.90;;;;;;;26.84;27.18;101187.20;107580;1259;59374;-73
2023/06/15 10:14:45;;;;;;;6.00;2.30;;;;;;;26.88;27.05;101185.75;108356;1258;74526;-73
2023/06/15 10:17:15;;;;;;;4.60;2.10;;;;;;;26.95;27.03;101194.67;108348;1258;71184;-73
2023/06/15 10:19:43;;;;;;;5.80;2.30;;;;;;;26.99;26.45;101194.56;107892;1263;71347;-72
2023/06/15 10:22:21;;;;;;;6.30;2.10;;;;;;;27.09;27.51;101191.67;108301;1259;59370;-73
2023/06/15 10:24:49;;;;;;;8.20;2.60;;;;;;;27.31;27.54;101193.30;108167;1258;61468;-72
2023/06/15 10:27:17;;;;;;;7.20;2.00;;;;;;;27.59;27.17;101187.45;107967;1258;73531;-72
2023/06/15 10:30:02;;;;;;;3.20;2.10;;;;;;;27.82;26.96;101182.98;107845;1259;72013;-72
2023/06/15 10:32:36;;;;;;;5.30;2.50;;;;;;;28.03;25.81;101179.62;108286;1260;71591;-74
2023/06/15 10:35:18;;;;;;;5.60;2.40;;;;;;;28.23;25.92;101175.70;107957;1260;61176;-74
2023/06/15 10:37:52;;;;;;;8.00;2.60;;;;;;;28.40;25.80;101170.35;107576;1261;61173;-74
2023/06/15 10:40:32;;;;;;;5.80;2.50;;;;;;;28.58;25.55;101174.56;108166;1260;75049;-73
2023/06/15 10:43:02;;;;;;;12.80;2.40;;;;;;;28.82;25.04;101169.39;108146;1260;71177;-72
2023/06/15 10:45:31;;;;;;;5.50;2.30;;;;;;;28.97;24.29;101162.78;108159;1260;72630;-73
2023/06/15 10:48:00;;;;;;;5.10;2.40;;;;;;;29.10;24.33;101162.88;108426;1260;59865;-74
2023/06/15 10:50:36;;;;;;;4.50;2.10;;;;;;;29.33;24.52;101167.91;107551;1258;59008;-74
2023/06/15 10:53:03;;;;;;;4.60;2.20;;;;;;;29.39;24.11;101163.85;107705;1258;74503;-73
2023/06/15 10:55:31;;;;;;;5.60;2.10;;;;;;;29.36;24.31;101165.10;108126;1259;71830;-74
2023/06/15 10:58:15;;;;;;;6.70;2.10;;;;;;;29.38;24.41;101164.95;107705;1260;72694;-73
2023/06/15 11:01:03;;;;;;;3.50;2.10;;;;;;;29.41;23.50;101166.13;108035;1259;61141;-75
2023/06/15 11:03:32;;;;;;;4.70;2.20;;;;;;;29.37;23.63;101162.73;107979;1262;61263;-74
2023/06/15 11:06:07;;;;;;;5.30;2.10;;;;;;;29.40;23.14;101160.55;108190;1260;74569;-75
2023/06/15 11:08:44;;;;;;;3.20;2.20;;;;;;;29.43;23.36;101160.75;107848;1260;70752;-74
2023/06/15 11:11:12;;;;;;;4.90;2.00;;;;;;;29.46;23.65;101158.52;108030;1258;71735;-76
2023/06/15 11:14:03;;;;;;;4.60;2.00;;;;;;;29.39;23.92;101164.55;107546;1260;60426;-74
2023/06/15 11:16:30;;;;;;;7.20;2.10;;;;;;;29.32;24.26;101165.30;107510;1259;60135;-75
2023/06/15 11:19:15;;;;;;;4.90;2.30;;;;;;;29.25;23.80;101163.79;108105;1258;73598;-73
2023/06/15 11:21:50;;;;;;;3.90;1.80;;;;;;;29.25;24.34;101163.62;108119;1260;70855;-74
2023/06/15 11:24:19;;;;;;;5.40;2.40;;;;;;;29.26;24.19;101159.07;108249;1260;72632;-73